Time;durP1;ratioP1;P1;durP2;ratioP2;P2;SDS_P1;SDS_P2;PMS_P1;PMS_P2;Temp;Humidity;BMP_temperature;BMP_pressure;BME280_temperature;BME280_humidity;BME280_pressure;Samples;Min_cycle;Max_cycle;Signal;HPM_P1;HPM_P2
2023/08/10 00:01:06;;;;;;;7.20;7.10;;;11.70;99.90;;;;;;5096761;28;20849;-67
2023/08/10 00:03:33;;;;;;;7.60;7.40;;;11.60;99.90;;;;;;5090103;28;20929;-67
2023/08/10 00:06:00;;;;;;;7.00;6.90;;;11.60;99.90;;;;;;5090672;28;20469;-69
2023/08/10 00:08:27;;;;;;;6.87;6.77;;;11.60;99.90;;;;;;5089758;28;20488;-70
2023/08/10 00:10:55;;;;;;;6.57;6.47;;;11.70;99.90;;;;;;5089829;28;20581;-67
2023/08/10 00:13:24;;;;;;;6.30;6.20;;;11.70;99.90;;;;;;5098694;28;20476;-67
2023/08/10 00:15:50;;;;;;;5.90;5.80;;;11.60;99.90;;;;;;5090302;28;20485;-67
2023/08/10 00:18:17;;;;;;;6.20;6.10;;;11.70;99.90;;;;;;5098101;28;20465;-67
2023/08/10 00:20:44;;;;;;;6.43;6.33;;;11.60;99.90;;;;;;5100484;28;20452;-70
2023/08/10 00:23:12;;;;;;;6.80;6.70;;;11.60;99.90;;;;;;5097114;28;20449;-67
2023/08/10 00:25:39;;;;;;;6.50;6.40;;;11.50;99.90;;;;;;5091282;28;20458;-67
2023/08/10 00:28:06;;;;;;;6.20;6.10;;;11.50;99.90;;;;;;5094950;28;20461;-67
2023/08/10 00:30:35;;;;;;;5.63;5.53;;;11.60;99.90;;;;;;5103370;28;20457;-67
2023/08/10 00:33:03;;;;;;;5.87;5.77;;;11.60;99.90;;;;;;5104848;28;20486;-67
2023/08/10 00:35:31;;;;;;;6.30;6.20;;;11.60;99.90;;;;;;5091374;28;20461;-70
2023/08/10 00:37:59;;;;;;;5.60;5.50;;;11.50;99.90;;;;;;5097872;28;20909;-70
2023/08/10 00:40:26;;;;;;;5.70;5.60;;;11.40;99.90;;;;;;5092148;28;20450;-67
2023/08/10 00:42:54;;;;;;;6.30;6.20;;;11.30;99.90;;;;;;5100222;28;20545;-69
2023/08/10 00:45:20;;;;;;;6.40;6.30;;;11.30;99.90;;;;;;5102671;28;20457;-70
2023/08/10 00:47:52;;;;;;;6.50;6.40;;;11.30;99.90;;;;;;5088362;28;20477;-68
2023/08/10 00:50:21;;;;;;;5.83;5.73;;;11.40;99.90;;;;;;5087892;28;20783;-68
2023/08/10 00:52:48;;;;;;;6.40;6.30;;;11.50;99.90;;;;;;5090790;28;20470;-68
2023/08/10 00:55:15;;;;;;;6.00;5.90;;;11.60;99.90;;;;;;5088658;28;21013;-67
2023/08/10 00:57:42;;;;;;;6.40;6.30;;;11.60;99.90;;;;;;5097121;28;20453;-67
2023/08/10 01:00:10;;;;;;;7.00;6.80;;;11.60;99.90;;;;;;5094786;28;21002;-68
2023/08/10 01:02:38;;;;;;;6.10;6.00;;;11.70;99.90;;;;;;5100089;28;20472;-67
2023/08/10 01:05:07;;;;;;;5.63;5.53;;;11.80;99.90;;;;;;5097061;28;20461;-68
2023/08/10 01:07:39;;;;;;;4.93;4.83;;;11.80;99.90;;;;;;5088150;28;20556;-69
2023/08/10 01:10:11;;;;;;;4.60;4.50;;;11.90;99.90;;;;;;5100798;28;20482;-70
2023/08/10 01:12:42;;;;;;;5.13;5.03;;;11.90;99.90;;;;;;5094679;28;20477;-71
2023/08/10 01:15:17;;;;;;;5.30;5.20;;;11.90;99.90;;;;;;5089601;28;20512;-67
2023/08/10 01:17:49;;;;;;;5.10;5.00;;;12.00;99.90;;;;;;5096915;28;20460;-68
2023/08/10 01:20:20;;;;;;;5.00;4.90;;;12.00;99.90;;;;;;5101185;28;20466;-68
2023/08/10 01:22:55;;;;;;;4.40;4.30;;;12.10;99.90;;;;;;5093213;28;20469;-69
2023/08/10 01:25:25;;;;;;;4.47;4.37;;;12.10;99.90;;;;;;5089369;28;20464;-70
2023/08/10 01:27:52;;;;;;;4.80;4.70;;;12.10;99.90;;;;;;5100436;28;20500;-67
2023/08/10 01:30:19;;;;;;;4.70;4.60;;;12.10;99.90;;;;;;5090783;28;20517;-67
2023/08/10 01:32:46;;;;;;;4.50;4.40;;;12.10;99.90;;;;;;5091899;28;20497;-70
2023/08/10 01:35:13;;;;;;;4.77;4.67;;;12.10;99.90;;;;;;5086984;28;20462;-67
2023/08/10 01:37:40;;;;;;;4.70;4.60;;;12.20;99.90;;;;;;5098310;28;20461;-68
2023/08/10 01:40:12;;;;;;;5.00;4.90;;;12.20;99.90;;;;;;5101698;28;20489;-68
2023/08/10 01:42:41;;;;;;;4.80;4.70;;;12.20;99.90;;;;;;5095762;28;20484;-67
2023/08/10 01:45:09;;;;;;;4.80;4.70;;;12.30;99.90;;;;;;5095293;28;20470;-70
2023/08/10 01:47:43;;;;;;;4.47;4.37;;;12.40;99.90;;;;;;5088658;28;20458;-67
2023/08/10 01:50:10;;;;;;;4.77;4.67;;;12.50;99.90;;;;;;5094326;28;20454;-67
2023/08/10 01:52:44;;;;;;;4.90;4.80;;;12.60;99.90;;;;;;5089276;28;20461;-68
2023/08/10 01:55:12;;;;;;;4.90;4.80;;;12.70;99.90;;;;;;5098057;28;20465;-68
2023/08/10 01:57:40;;;;;;;5.27;5.17;;;12.80;99.90;;;;;;5101660;28;20488;-68
2023/08/10 02:00:09;;;;;;;5.10;5.00;;;12.80;99.90;;;;;;5088772;28;20496;-68
2023/08/10 02:02:35;;;;;;;4.90;4.80;;;12.80;99.90;;;;;;5092469;28;20466;-68
2023/08/10 02:05:02;;;;;;;4.80;4.70;;;12.90;99.90;;;;;;5088335;28;20774;-67
2023/08/10 02:07:29;;;;;;;5.03;4.93;;;12.90;99.90;;;;;;5088178;28;20552;-66
2023/08/10 02:09:56;;;;;;;4.60;4.50;;;13.00;99.90;;;;;;5093352;28;20484;-67
2023/08/10 02:12:23;;;;;;;4.80;4.70;;;13.00;99.90;;;;;;5094353;28;20462;-67
2023/08/10 02:14:51;;;;;;;4.80;4.70;;;13.00;99.90;;;;;;5096841;28;20889;-70
2023/08/10 02:17:18;;;;;;;5.33;5.23;;;13.00;99.90;;;;;;5103314;28;20489;-67
2023/08/10 02:19:45;;;;;;;5.40;5.30;;;13.00;99.90;;;;;;5095850;28;20474;-69
2023/08/10 02:22:12;;;;;;;5.10;5.00;;;13.00;99.90;;;;;;5094344;28;20461;-68
2023/08/10 02:24:39;;;;;;;5.40;5.30;;;12.90;99.90;;;;;;5107541;28;20453;-69
2023/08/10 02:27:06;;;;;;;6.03;5.83;;;12.80;99.90;;;;;;5095791;28;20488;-70
2023/08/10 02:29:33;;;;;;;6.27;6.07;;;12.80;99.90;;;;;;5102072;28;20452;-68
2023/08/10 02:32:02;;;;;;;5.90;5.70;;;12.80;99.90;;;;;;5102000;28;20859;-68
2023/08/10 02:34:28;;;;;;;6.40;6.20;;;12.70;99.90;;;;;;5087786;28;20499;-68
2023/08/10 02:36:55;;;;;;;5.90;5.70;;;12.80;99.90;;;;;;5093579;28;20465;-67
2023/08/10 02:39:23;;;;;;;5.90;5.70;;;12.70;99.90;;;;;;5105808;28;20456;-67
2023/08/10 02:41:50;;;;;;;6.40;6.20;;;12.70;99.90;;;;;;5098316;28;20472;-68
2023/08/10 02:44:19;;;;;;;5.60;5.40;;;12.50;99.90;;;;;;5088605;28;20465;-71
2023/08/10 02:46:46;;;;;;;5.87;5.67;;;12.50;99.90;;;;;;5097085;28;20555;-68
2023/08/10 02:49:15;;;;;;;5.40;5.20;;;12.50;99.90;;;;;;5097216;28;20827;-69
2023/08/10 02:51:42;;;;;;;5.53;5.33;;;12.50;99.90;;;;;;5099191;28;21022;-67
2023/08/10 02:54:09;;;;;;;5.27;5.17;;;12.50;99.90;;;;;;5101169;28;20546;-68
2023/08/10 02:56:36;;;;;;;5.87;5.67;;;12.60;99.90;;;;;;5101296;28;20462;-71
2023/08/10 02:59:04;;;;;;;6.20;6.00;;;12.70;99.90;;;;;;5101589;28;20457;-68
2023/08/10 03:01:31;;;;;;;5.70;5.50;;;12.80;99.90;;;;;;5096701;28;20824;-67
2023/08/10 03:03:58;;;;;;;5.40;5.20;;;12.90;99.90;;;;;;5090981;28;20504;-67
2023/08/10 03:06:27;;;;;;;5.20;5.10;;;12.90;99.90;;;;;;5088793;28;20465;-68
2023/08/10 03:08:54;;;;;;;5.17;5.00;;;12.90;99.90;;;;;;5090542;28;20913;-71
2023/08/10 03:11:21;;;;;;;5.70;5.50;;;12.90;99.90;;;;;;5091178;28;20465;-71
2023/08/10 03:13:49;;;;;;;4.80;4.70;;;12.90;99.90;;;;;;5099924;28;21013;-69
2023/08/10 03:16:17;;;;;;;5.70;5.50;;;12.80;99.90;;;;;;5100941;28;20480;-70
2023/08/10 03:18:44;;;;;;;5.40;5.20;;;12.80;99.90;;;;;;5099799;28;20633;-68
2023/08/10 03:21:11;;;;;;;4.93;4.83;;;12.90;99.90;;;;;;5104609;28;20550;-67
2023/08/10 03:23:39;;;;;;;5.60;5.40;;;12.90;99.90;;;;;;5093183;28;20871;-68
2023/08/10 03:26:06;;;;;;;5.40;5.20;;;12.90;99.90;;;;;;5098399;28;20454;-68
2023/08/10 03:28:34;;;;;;;5.20;5.00;;;12.90;99.90;;;;;;5102702;27;20480;-69
2023/08/10 03:31:01;;;;;;;5.67;5.47;;;12.90;99.90;;;;;;5087279;28;21049;-67
2023/08/10 03:33:28;;;;;;;5.30;5.10;;;12.90;99.90;;;;;;5099257;28;20525;-68
2023/08/10 03:35:55;;;;;;;4.80;4.70;;;13.00;99.90;;;;;;5105123;28;20480;-68
2023/08/10 03:38:21;;;;;;;5.43;5.23;;;13.00;99.90;;;;;;5101601;28;20461;-68
2023/08/10 03:40:50;;;;;;;5.30;5.10;;;12.90;99.90;;;;;;5091318;27;20457;-68
2023/08/10 03:43:17;;;;;;;5.20;5.03;;;13.00;99.90;;;;;;5090145;28;20527;-68
2023/08/10 03:45:43;;;;;;;5.27;5.07;;;13.10;99.90;;;;;;5092930;28;20548;-68
2023/08/10 03:48:10;;;;;;;5.20;5.00;;;13.20;99.90;;;;;;5101459;28;20449;-71
2023/08/10 03:50:37;;;;;;;5.00;4.90;;;13.10;99.90;;;;;;5096713;28;20453;-71
2023/08/10 03:53:06;;;;;;;5.07;4.90;;;13.20;99.90;;;;;;5096265;28;20458;-71
2023/08/10 03:55:33;;;;;;;4.67;4.57;;;13.20;99.90;;;;;;5097291;28;20457;-68
2023/08/10 03:58:01;;;;;;;5.10;4.90;;;13.20;99.90;;;;;;5097943;28;20458;-68
2023/08/10 04:00:27;;;;;;;4.80;4.70;;;13.20;99.90;;;;;;5098657;28;20543;-68
2023/08/10 04:02:54;;;;;;;4.63;4.53;;;13.20;99.90;;;;;;5093887;28;20472;-67
2023/08/10 04:05:21;;;;;;;4.70;4.60;;;13.20;99.90;;;;;;5104128;28;20461;-67
2023/08/10 04:07:48;;;;;;;4.70;4.60;;;13.20;99.90;;;;;;5097997;28;20462;-67
2023/08/10 04:10:16;;;;;;;4.70;4.60;;;13.10;99.90;;;;;;5099747;28;20563;-69
2023/08/10 04:12:43;;;;;;;5.17;5.00;;;13.10;99.90;;;;;;5094551;28;20954;-68
2023/08/10 04:15:11;;;;;;;5.10;5.00;;;13.00;99.90;;;;;;5100399;28;20569;-71
2023/08/10 04:17:38;;;;;;;5.20;5.10;;;13.10;99.90;;;;;;5108638;28;20468;-68
2023/08/10 04:20:09;;;;;;;5.13;5.03;;;13.00;99.90;;;;;;5103179;28;20480;-68
2023/08/10 04:22:36;;;;;;;5.10;5.00;;;12.90;99.90;;;;;;5095614;28;20476;-69
2023/08/10 04:25:04;;;;;;;5.20;5.10;;;12.90;99.90;;;;;;5094879;28;20462;-67
2023/08/10 04:27:31;;;;;;;4.60;4.50;;;12.90;99.90;;;;;;5101057;28;20462;-70
2023/08/10 04:29:58;;;;;;;4.60;4.50;;;13.00;99.90;;;;;;5100000;28;20466;-69
2023/08/10 04:32:26;;;;;;;4.70;4.60;;;13.00;99.90;;;;;;5096599;28;20482;-67
2023/08/10 04:34:54;;;;;;;5.40;5.20;;;13.10;99.90;;;;;;5099743;27;20497;-68
2023/08/10 04:37:20;;;;;;;4.93;4.83;;;13.20;99.90;;;;;;5092484;28;20953;-67
2023/08/10 04:39:47;;;;;;;4.40;4.30;;;13.30;99.90;;;;;;5094138;28;20469;-67
2023/08/10 04:42:14;;;;;;;4.90;4.80;;;13.40;99.90;;;;;;5099327;28;20457;-68
2023/08/10 04:44:41;;;;;;;4.70;4.60;;;13.50;99.90;;;;;;5099417;28;20506;-68
2023/08/10 04:47:08;;;;;;;4.80;4.70;;;13.60;99.90;;;;;;5101272;28;20474;-71
2023/08/10 04:49:36;;;;;;;4.97;4.87;;;13.70;99.90;;;;;;5103919;28;20445;-67
2023/08/10 04:52:03;;;;;;;4.70;4.60;;;13.80;99.90;;;;;;5090604;28;20469;-67
2023/08/10 04:54:30;;;;;;;5.17;4.97;;;14.00;99.90;;;;;;5095713;28;20477;-68
2023/08/10 04:56:58;;;;;;;5.07;4.97;;;14.10;99.90;;;;;;5099641;28;20469;-70
2023/08/10 04:59:25;;;;;;;4.50;4.40;;;14.20;99.90;;;;;;5095700;28;20472;-68
2023/08/10 05:01:51;;;;;;;5.13;5.03;;;14.30;99.90;;;;;;5085718;27;20506;-69
2023/08/10 05:04:19;;;;;;;4.80;4.70;;;14.40;99.90;;;;;;5101128;28;20453;-68
2023/08/10 05:06:47;;;;;;;5.13;5.03;;;14.50;99.90;;;;;;5101801;28;20453;-67
2023/08/10 05:09:14;;;;;;;5.43;5.27;;;14.50;99.90;;;;;;5092969;28;20490;-69
2023/08/10 05:11:41;;;;;;;5.57;5.40;;;14.50;99.90;;;;;;5096079;28;20463;-68
2023/08/10 05:14:09;;;;;;;6.00;5.80;;;14.60;99.90;;;;;;5088050;28;20500;-68
2023/08/10 05:16:36;;;;;;;5.97;5.77;;;14.80;99.90;;;;;;5097910;28;20806;-68
2023/08/10 05:19:03;;;;;;;6.30;6.10;;;14.80;99.90;;;;;;5098037;28;20449;-68
2023/08/10 05:21:31;;;;;;;7.10;6.90;;;14.80;99.90;;;;;;5090975;28;20809;-68
2023/08/10 05:23:59;;;;;;;7.67;7.37;;;14.80;99.90;;;;;;5102927;28;20479;-68
2023/08/10 05:26:27;;;;;;;8.00;7.70;;;14.80;99.90;;;;;;5080039;28;20457;-71
2023/08/10 05:28:54;;;;;;;8.10;7.80;;;15.00;99.90;;;;;;5095227;28;20497;-68
2023/08/10 05:31:22;;;;;;;9.40;9.10;;;15.10;99.90;;;;;;5095939;28;20465;-68
2023/08/10 05:33:49;;;;;;;9.97;9.57;;;15.20;99.90;;;;;;5089884;28;20991;-69
2023/08/10 05:36:16;;;;;;;9.67;9.30;;;15.20;99.90;;;;;;5093177;28;20636;-68
2023/08/10 05:38:43;;;;;;;8.87;8.57;;;15.50;99.90;;;;;;5100540;28;20449;-70
2023/08/10 05:41:11;;;;;;;8.63;8.33;;;15.70;99.90;;;;;;5093537;28;21064;-68
2023/08/10 05:43:38;;;;;;;9.90;9.50;;;15.80;99.90;;;;;;5085363;28;20461;-68
2023/08/10 05:46:05;;;;;;;10.33;9.93;;;16.00;99.90;;;;;;5098806;28;20821;-71
2023/08/10 05:48:31;;;;;;;10.20;9.80;;;16.00;99.90;;;;;;5085873;28;20485;-70
2023/08/10 05:50:58;;;;;;;10.90;10.50;;;16.10;99.90;;;;;;5088373;28;20517;-68
2023/08/10 05:53:25;;;;;;;11.40;11.00;;;16.20;99.90;;;;;;5090240;28;20468;-68
2023/08/10 05:55:52;;;;;;;11.20;10.80;;;16.20;99.90;;;;;;5086125;28;20500;-68
2023/08/10 05:58:20;;;;;;;11.40;10.93;;;16.30;99.90;;;;;;5090610;28;20464;-68
2023/08/10 06:00:49;;;;;;;11.00;10.60;;;16.20;99.90;;;;;;5091997;28;20465;-71
2023/08/10 06:03:16;;;;;;;11.50;11.10;;;16.20;99.90;;;;;;5094787;28;20476;-68
2023/08/10 06:05:44;;;;;;;10.90;10.50;;;16.10;99.90;;;;;;5091128;28;20823;-68
2023/08/10 06:08:11;;;;;;;10.90;10.50;;;16.10;99.90;;;;;;5092602;28;20523;-70
2023/08/10 06:10:38;;;;;;;11.00;10.60;;;16.00;99.90;;;;;;5090897;28;20481;-68
2023/08/10 06:13:04;;;;;;;12.00;11.60;;;16.00;99.90;;;;;;5095274;28;20456;-67
2023/08/10 06:15:33;;;;;;;11.93;11.53;;;15.90;99.90;;;;;;5095597;28;20579;-68
2023/08/10 06:17:59;;;;;;;11.30;10.90;;;15.80;99.90;;;;;;5091559;28;20476;-67
2023/08/10 06:20:27;;;;;;;11.67;11.27;;;15.90;99.90;;;;;;5103629;28;20553;-70
2023/08/10 06:22:54;;;;;;;12.20;11.70;;;15.90;99.90;;;;;;5091811;28;20460;-67
2023/08/10 06:25:21;;;;;;;12.07;11.57;;;15.90;99.90;;;;;;5094308;28;21051;-67
2023/08/10 06:27:49;;;;;;;13.30;12.70;;;15.90;99.90;;;;;;5094033;28;20473;-66
2023/08/10 06:30:16;;;;;;;12.60;12.10;;;15.90;99.90;;;;;;5101168;28;20502;-67
2023/08/10 06:32:44;;;;;;;12.90;12.40;;;15.90;99.90;;;;;;5100569;27;20937;-68
2023/08/10 06:35:11;;;;;;;12.47;11.97;;;16.00;99.90;;;;;;5096089;27;20495;-67
2023/08/10 06:37:38;;;;;;;12.50;12.00;;;16.00;99.90;;;;;;5097356;27;20484;-67
2023/08/10 06:40:08;;;;;;;12.47;11.97;;;16.10;99.90;;;;;;5099986;28;20469;-68
2023/08/10 06:42:37;;;;;;;12.93;12.43;;;16.10;99.90;;;;;;5092680;28;20449;-67
2023/08/10 06:45:04;;;;;;;13.17;12.67;;;16.20;99.90;;;;;;5094143;28;21224;-69
2023/08/10 06:47:31;;;;;;;12.77;12.27;;;16.30;99.90;;;;;;5090781;28;20741;-67
2023/08/10 06:49:59;;;;;;;12.90;12.40;;;16.40;99.90;;;;;;5090154;28;21035;-67
2023/08/10 06:52:27;;;;;;;12.40;11.90;;;16.50;99.90;;;;;;5094950;28;21627;-67
2023/08/10 06:54:54;;;;;;;12.60;12.10;;;16.50;99.90;;;;;;5096520;28;20880;-69
2023/08/10 06:57:21;;;;;;;12.43;11.93;;;16.50;99.90;;;;;;5094409;28;20840;-67
2023/08/10 06:59:48;;;;;;;12.87;12.37;;;16.60;99.90;;;;;;5093116;28;20465;-67
2023/08/10 07:02:17;;;;;;;13.33;12.83;;;16.70;99.90;;;;;;5096552;28;20454;-67
2023/08/10 07:04:45;;;;;;;13.30;12.80;;;16.70;99.90;;;;;;5088654;28;20461;-67
2023/08/10 07:07:15;;;;;;;13.97;13.37;;;16.80;99.90;;;;;;5093208;28;20480;-68
2023/08/10 07:09:43;;;;;;;13.37;12.87;;;16.80;99.90;;;;;;5091234;28;20812;-70
2023/08/10 07:12:10;;;;;;;14.17;13.57;;;16.90;99.90;;;;;;5097305;28;20549;-68
2023/08/10 07:14:38;;;;;;;13.97;13.37;;;17.00;99.90;;;;;;5094881;28;21077;-67
2023/08/10 07:17:05;;;;;;;14.40;13.80;;;17.10;99.90;;;;;;5095154;28;20484;-69
2023/08/10 07:19:32;;;;;;;14.30;13.70;;;17.20;99.90;;;;;;5089683;28;20472;-69
2023/08/10 07:21:59;;;;;;;14.10;13.50;;;17.20;99.90;;;;;;5099466;28;20453;-67
2023/08/10 07:24:27;;;;;;;14.37;13.77;;;17.20;99.90;;;;;;5092639;28;20648;-70
2023/08/10 07:26:56;;;;;;;14.00;13.40;;;17.40;99.90;;;;;;5099353;28;20467;-67
2023/08/10 07:29:23;;;;;;;14.83;14.07;;;17.50;99.90;;;;;;5095521;28;21027;-67
2023/08/10 07:31:50;;;;;;;14.23;13.63;;;17.60;99.90;;;;;;5096816;28;20466;-68
2023/08/10 07:34:17;;;;;;;14.27;13.67;;;17.70;99.90;;;;;;5093517;28;20466;-67
2023/08/10 07:36:44;;;;;;;13.80;13.30;;;17.70;99.90;;;;;;5092024;28;20495;-68
2023/08/10 07:39:13;;;;;;;14.00;13.40;;;17.70;99.90;;;;;;5094260;28;20455;-68
2023/08/10 07:41:41;;;;;;;14.20;13.60;;;17.60;99.90;;;;;;5094588;28;20461;-68
2023/08/10 07:44:08;;;;;;;14.33;13.73;;;17.70;99.90;;;;;;5087134;28;20459;-67
2023/08/10 07:46:35;;;;;;;14.20;13.60;;;17.80;99.90;;;;;;5090783;28;20903;-67
2023/08/10 07:49:02;;;;;;;14.07;13.47;;;17.90;99.90;;;;;;5093892;28;20460;-67
2023/08/10 07:51:29;;;;;;;13.70;13.20;;;18.00;99.90;;;;;;5093229;28;20469;-67
2023/08/10 07:53:55;;;;;;;13.70;13.20;;;18.20;99.90;;;;;;5093419;28;20956;-68
2023/08/10 07:56:22;;;;;;;13.63;13.13;;;18.30;99.90;;;;;;5092316;28;20482;-68
2023/08/10 07:58:51;;;;;;;13.70;13.20;;;18.40;99.90;;;;;;5094967;28;20461;-69
2023/08/10 08:01:17;;;;;;;14.30;13.70;;;18.40;99.90;;;;;;5092385;28;20466;-67
2023/08/10 08:03:45;;;;;;;14.23;13.67;;;18.50;99.90;;;;;;5091447;28;20824;-66
2023/08/10 08:06:12;;;;;;;13.40;12.90;;;18.60;99.90;;;;;;5103398;27;20445;-67
2023/08/10 08:08:39;;;;;;;13.60;13.10;;;18.60;99.90;;;;;;5103321;28;20474;-69
2023/08/10 08:11:05;;;;;;;13.87;13.37;;;18.70;99.90;;;;;;5101900;28;21014;-70
2023/08/10 08:13:33;;;;;;;13.87;13.37;;;18.80;99.90;;;;;;5093239;28;20547;-68
2023/08/10 08:16:01;;;;;;;13.40;12.90;;;18.90;99.90;;;;;;5096059;28;20533;-68
2023/08/10 08:18:47;;;;;;;13.60;13.10;;;19.00;99.90;;;;;;5093091;28;20454;-68
2023/08/10 08:21:15;;;;;;;13.60;13.10;;;19.00;99.90;;;;;;5104937;28;20508;-67
2023/08/10 08:23:43;;;;;;;14.13;13.60;;;19.10;99.90;;;;;;5093293;28;20465;-69
2023/08/10 08:26:11;;;;;;;15.13;14.53;;;19.20;99.90;;;;;;5089400;28;20860;-68
2023/08/10 08:28:38;;;;;;;14.80;14.20;;;19.10;99.90;;;;;;5092559;28;20885;-67
2023/08/10 08:31:06;;;;;;;14.53;13.93;;;19.20;99.90;;;;;;5094889;28;20470;-68
2023/08/10 08:33:35;;;;;;;14.60;14.00;;;19.20;99.90;;;;;;5096039;28;20458;-67
2023/08/10 08:36:02;;;;;;;14.50;13.90;;;19.40;99.90;;;;;;5091743;28;20493;-69
2023/08/10 08:38:30;;;;;;;14.30;13.80;;;19.50;99.90;;;;;;5098833;28;20458;-70
2023/08/10 08:40:57;;;;;;;14.60;14.00;;;19.70;99.90;;;;;;5097266;28;20453;-68
2023/08/10 08:43:24;;;;;;;15.10;14.50;;;20.30;99.90;;;;;;5090162;28;20470;-68
2023/08/10 08:45:52;;;;;;;14.90;14.30;;;21.10;99.90;;;;;;5095762;28;20460;-68
2023/08/10 08:48:20;;;;;;;15.40;14.80;;;21.90;99.90;;;;;;5096503;28;20468;-67
2023/08/10 08:50:48;;;;;;;15.40;14.80;;;22.60;99.90;;;;;;5097899;28;20445;-68
2023/08/10 08:53:15;;;;;;;15.70;15.10;;;22.80;99.90;;;;;;5096188;27;21023;-69
2023/08/10 08:55:44;;;;;;;15.90;15.30;;;23.30;99.90;;;;;;5095071;28;20552;-68
2023/08/10 08:58:11;;;;;;;16.07;15.47;;;23.80;99.90;;;;;;5097076;28;20470;-66
2023/08/10 09:00:40;;;;;;;15.57;14.97;;;24.20;99.90;;;;;;5097865;28;20498;-67
2023/08/10 09:03:07;;;;;;;15.60;15.00;;;24.80;99.90;;;;;;5090780;28;20466;-68
2023/08/10 09:05:36;;;;;;;16.23;15.63;;;24.80;99.90;;;;;;5090333;28;20589;-68
2023/08/10 09:08:04;;;;;;;16.07;15.47;;;25.30;99.90;;;;;;5098052;28;20456;-68
2023/08/10 09:10:31;;;;;;;17.37;16.67;;;25.60;99.90;;;;;;5095597;28;20473;-70
2023/08/10 09:12:57;;;;;;;16.33;15.73;;;26.70;99.90;;;;;;5091537;28;20461;-68
2023/08/10 09:15:27;;;;;;;16.00;15.40;;;27.00;99.90;;;;;;5097091;28;20498;-68
2023/08/10 09:17:54;;;;;;;16.40;15.80;;;26.60;99.90;;;;;;5097878;28;20561;-68
2023/08/10 09:20:23;;;;;;;15.97;15.40;;;26.60;99.90;;;;;;5092390;28;20446;-68
2023/08/10 09:22:54;;;;;;;16.80;16.20;;;27.00;99.90;;;;;;5089929;28;20462;-68
2023/08/10 09:25:22;;;;;;;17.00;16.40;;;27.60;99.90;;;;;;5087455;28;20611;-68
2023/08/10 09:27:50;;;;;;;16.27;15.67;;;28.20;99.90;;;;;;5097841;28;20458;-68
2023/08/10 09:30:19;;;;;;;16.70;16.10;;;28.10;99.90;;;;;;5101737;28;20468;-69
2023/08/10 09:32:46;;;;;;;16.70;16.10;;;28.40;98.80;;;;;;5101180;28;20472;-69
2023/08/10 09:35:15;;;;;;;16.20;15.60;;;28.40;97.70;;;;;;5090588;28;20458;-68
2023/08/10 09:37:42;;;;;;;16.20;15.60;;;29.10;97.10;;;;;;5087587;28;20556;-68
2023/08/10 09:40:15;;;;;;;16.30;15.70;;;29.50;96.20;;;;;;5092581;28;20729;-67
2023/08/10 09:42:42;;;;;;;16.30;15.70;;;29.30;95.70;;;;;;5089971;28;20479;-69
2023/08/10 09:45:11;;;;;;;16.30;15.70;;;28.70;94.90;;;;;;5087691;28;20462;-70
2023/08/10 09:47:40;;;;;;;15.30;14.80;;;28.70;95.50;;;;;;5089386;28;20476;-70
2023/08/10 09:50:09;;;;;;;15.60;15.10;;;28.30;95.00;;;;;;5092451;28;20463;-69
2023/08/10 09:52:37;;;;;;;15.57;15.07;;;28.60;94.00;;;;;;5092363;28;20872;-69
2023/08/10 09:55:06;;;;;;;16.40;15.80;;;29.10;95.50;;;;;;5090653;28;20461;-68
2023/08/10 09:57:40;;;;;;;15.67;15.17;;;29.90;92.90;;;;;;5092399;28;20468;-69
2023/08/10 10:00:14;;;;;;;16.03;15.50;;;30.00;91.40;;;;;;5096800;28;20446;-68
2023/08/10 10:02:41;;;;;;;15.00;14.50;;;29.00;91.70;;;;;;5097341;28;20457;-69
2023/08/10 10:05:09;;;;;;;15.73;15.23;;;29.20;92.30;;;;;;5104019;28;20453;-68
2023/08/10 10:07:36;;;;;;;15.57;15.07;;;29.00;93.60;;;;;;5091031;28;20628;-69
2023/08/10 10:10:03;;;;;;;14.87;14.37;;;29.50;92.50;;;;;;5098902;28;20544;-68
2023/08/10 10:12:36;;;;;;;15.50;15.00;;;30.40;91.10;;;;;;5098724;28;20454;-68
2023/08/10 10:15:07;;;;;;;14.73;14.23;;;30.40;90.40;;;;;;5103658;28;20857;-69
2023/08/10 10:17:34;;;;;;;15.70;15.20;;;30.50;90.20;;;;;;5102164;28;20776;-69
2023/08/10 10:20:01;;;;;;;16.30;15.70;;;31.30;89.80;;;;;;5094705;28;20472;-69
2023/08/10 10:22:28;;;;;;;15.83;15.30;;;31.50;89.70;;;;;;5094588;28;20858;-68
2023/08/10 10:24:57;;;;;;;16.00;15.40;;;31.40;85.70;;;;;;5103188;27;20873;-68
2023/08/10 10:27:40;;;;;;;15.10;14.60;;;30.50;86.50;;;;;;5098464;28;20445;-69
2023/08/10 10:30:17;;;;;;;15.20;14.70;;;30.90;87.30;;;;;;5101648;28;20453;-70
2023/08/10 10:32:47;;;;;;;15.40;14.90;;;31.30;89.20;;;;;;5100310;28;20459;-69
2023/08/10 10:35:16;;;;;;;15.03;14.53;;;30.00;87.40;;;;;;5096291;28;20457;-68
2023/08/10 10:37:43;;;;;;;14.97;14.47;;;29.30;90.70;;;;;;5087723;28;21213;-69
2023/08/10 10:40:22;;;;;;;14.80;14.30;;;29.60;90.20;;;;;;5097508;28;20496;-67
2023/08/10 10:43:09;;;;;;;15.53;15.03;;;29.70;90.50;;;;;;5093013;27;20487;-69
2023/08/10 10:45:40;;;;;;;15.47;14.97;;;29.90;89.90;;;;;;5105364;28;20947;-68
2023/08/10 10:48:07;;;;;;;15.40;14.90;;;29.20;88.90;;;;;;5096615;28;20477;-68
2023/08/10 10:50:36;;;;;;;15.60;15.10;;;29.20;90.20;;;;;;5104757;28;20502;-68
2023/08/10 10:53:04;;;;;;;15.70;15.20;;;29.10;90.20;;;;;;5100506;28;20500;-69
2023/08/10 10:55:39;;;;;;;15.40;14.90;;;29.10;91.50;;;;;;5098082;28;20884;-69
2023/08/10 10:58:07;;;;;;;15.07;14.57;;;29.50;92.00;;;;;;5093607;28;20456;-69
2023/08/10 11:00:36;;;;;;;15.50;15.00;;;30.00;90.30;;;;;;5100238;28;20499;-68
2023/08/10 11:03:06;;;;;;;15.17;14.67;;;30.60;90.40;;;;;;5104870;28;20453;-70
2023/08/10 11:05:33;;;;;;;15.13;14.63;;;31.30;86.90;;;;;;5099712;28;20466;-69
2023/08/10 11:08:03;;;;;;;15.17;14.67;;;31.50;88.40;;;;;;5089393;28;20462;-70
2023/08/10 11:10:31;;;;;;;15.40;14.90;;;31.10;86.00;;;;;;5090645;28;20482;-70
2023/08/10 11:12:59;;;;;;;15.77;15.27;;;31.80;86.30;;;;;;5095842;28;20462;-69
2023/08/10 11:15:25;;;;;;;15.90;15.40;;;32.00;85.00;;;;;;5100553;28;20484;-70
2023/08/10 11:17:54;;;;;;;15.70;15.20;;;32.30;85.00;;;;;;5103496;28;20484;-70
2023/08/10 11:20:22;;;;;;;15.37;14.87;;;32.70;81.70;;;;;;5095056;28;20502;-66
2023/08/10 11:22:50;;;;;;;14.83;14.33;;;33.30;82.90;;;;;;5100438;28;20457;-70
2023/08/10 11:25:18;;;;;;;14.33;13.93;;;34.20;80.50;;;;;;5094065;28;20460;-69
2023/08/10 11:27:47;;;;;;;14.13;13.73;;;34.60;77.70;;;;;;5089468;28;20748;-69
2023/08/10 11:30:15;;;;;;;14.70;14.20;;;34.20;75.80;;;;;;5097033;28;20454;-70
2023/08/10 11:32:43;;;;;;;14.17;13.77;;;33.90;76.40;;;;;;5097782;28;20457;-67
2023/08/10 11:35:25;;;;;;;15.20;14.70;;;33.60;77.10;;;;;;5094054;28;20535;-69
2023/08/10 11:37:53;;;;;;;15.10;14.60;;;33.30;79.40;;;;;;5095353;28;20499;-70
2023/08/10 11:40:22;;;;;;;14.27;13.87;;;33.70;75.90;;;;;;5086379;28;20472;-70
2023/08/10 11:42:52;;;;;;;14.10;13.70;;;34.20;76.60;;;;;;5089203;28;21086;-68
2023/08/10 11:45:21;;;;;;;14.27;13.87;;;34.80;73.70;;;;;;5093468;28;20469;-70
2023/08/10 11:47:57;;;;;;;14.03;13.63;;;34.30;72.80;;;;;;5093105;28;20456;-70
2023/08/10 11:50:26;;;;;;;14.43;14.03;;;34.40;76.70;;;;;;5089850;28;20482;-69
2023/08/10 11:52:54;;;;;;;14.70;14.20;;;33.90;74.10;;;;;;5101013;28;20805;-69
2023/08/10 11:55:22;;;;;;;14.10;13.70;;;33.90;73.40;;;;;;5090856;28;20472;-69
2023/08/10 11:57:51;;;;;;;13.80;13.40;;;34.70;75.30;;;;;;5093220;28;20497;-70
2023/08/10 12:00:23;;;;;;;14.10;13.70;;;34.80;70.90;;;;;;5091242;28;20557;-70
2023/08/10 12:03:16;;;;;;;13.37;12.97;;;35.40;70.30;;;;;;5096942;28;20458;-69
2023/08/10 12:05:45;;;;;;;14.07;13.67;;;35.20;69.90;;;;;;5086294;28;20471;-71
2023/08/10 12:08:15;;;;;;;13.30;12.90;;;34.50;70.50;;;;;;5092563;28;20471;-68
2023/08/10 12:10:44;;;;;;;13.30;12.90;;;35.50;68.90;;;;;;5089383;28;20505;-70
2023/08/10 12:13:14;;;;;;;13.53;13.13;;;35.70;67.70;;;;;;5097550;28;20450;-70
2023/08/10 12:15:46;;;;;;;13.50;13.10;;;35.50;66.70;;;;;;5093020;28;20482;-71
2023/08/10 12:18:14;;;;;;;14.07;13.67;;;34.80;67.50;;;;;;5092404;28;20454;-70
2023/08/10 12:20:41;;;;;;;13.63;13.23;;;34.40;66.70;;;;;;5088956;28;20459;-70
2023/08/10 12:23:09;;;;;;;14.10;13.70;;;34.90;66.40;;;;;;5098866;28;20839;-70
2023/08/10 12:25:37;;;;;;;14.07;13.67;;;35.50;65.50;;;;;;5097175;28;20955;-71
2023/08/10 12:28:07;;;;;;;14.20;13.80;;;35.10;66.20;;;;;;5091372;28;20461;-71
2023/08/10 12:30:33;;;;;;;13.27;12.87;;;35.00;65.30;;;;;;5088194;28;20727;-70
2023/08/10 12:33:01;;;;;;;13.77;13.37;;;35.30;66.60;;;;;;5092755;28;20509;-71
2023/08/10 12:35:28;;;;;;;14.07;13.67;;;35.90;65.40;;;;;;5092626;28;20474;-71
2023/08/10 12:37:55;;;;;;;12.50;12.20;;;35.70;65.60;;;;;;5102304;28;20592;-69
2023/08/10 12:40:22;;;;;;;13.40;13.00;;;36.60;64.00;;;;;;5082994;28;20466;-68